Porum, Oklahoma
Current Conditions -  °F | °C
As of 10:15 AM on Saturday 22 Nov 2014 (Local Time) from KGZL Reporting Station
Overcast Overcast  
Wind Chill: 54°   Ceiling: 1700
Heat Index: 54°   Visibility: 7mi
Dew Point: 52°   Wind: 5mph
Humidity: 94%   Direction: 90°E
Pressure: 30.09"   Gusts: NA
Location:  35.36°N, 95.27°W
Report Text: KGZL 221615Z AUTO 09004KT 7SM FEW006 OVC017 12/11 A3009 RMK AO2
Loading
Personal Weather Stations






























Interactive Weather Map New forecast layout! Learn more

10-Day Weather Forecast

Advertisements
Track Severe Weather on mobile